createdAt,value
2023-05-08T00:01:08.660Z,17.00
2023-05-08T00:02:29.207Z,17.00
2023-05-08T00:03:49.910Z,16.90
2023-05-08T00:05:10.373Z,16.90
2023-05-08T00:06:30.770Z,17.00
2023-05-08T00:07:51.035Z,16.90
2023-05-08T00:09:11.447Z,16.90
2023-05-08T00:10:33.315Z,16.90
2023-05-08T00:11:54.288Z,16.80
2023-05-08T00:13:14.816Z,16.80
2023-05-08T00:14:38.073Z,16.80
2023-05-08T00:15:58.111Z,16.80
2023-05-08T00:17:18.486Z,16.80
2023-05-08T00:18:38.964Z,16.80
2023-05-08T00:19:59.384Z,16.80
2023-05-08T00:21:19.902Z,16.80
2023-05-08T00:22:40.285Z,16.90
2023-05-08T00:24:00.635Z,16.90
2023-05-08T00:25:20.933Z,16.90
2023-05-08T00:26:42.792Z,16.90
2023-05-08T00:28:03.292Z,16.90
2023-05-08T00:29:23.886Z,16.90
2023-05-08T00:30:44.233Z,16.80
2023-05-08T00:32:04.819Z,16.60
2023-05-08T00:33:24.863Z,16.50
2023-05-08T00:34:45.153Z,16.50
2023-05-08T00:36:05.872Z,16.60
2023-05-08T00:37:26.353Z,16.60
2023-05-08T00:38:46.823Z,16.60
2023-05-08T00:40:08.057Z,16.60
2023-05-08T00:41:28.217Z,16.60
2023-05-08T00:42:49.792Z,16.60
2023-05-08T00:44:10.192Z,16.70
2023-05-08T00:45:32.587Z,16.70
2023-05-08T00:46:53.018Z,16.70
2023-05-08T00:48:13.369Z,16.70
2023-05-08T00:49:33.555Z,16.70
2023-05-08T00:50:53.906Z,16.60
2023-05-08T00:52:14.446Z,16.60
2023-05-08T00:53:36.220Z,16.60
2023-05-08T00:54:56.620Z,16.60
2023-05-08T00:56:16.970Z,16.60
2023-05-08T00:57:37.230Z,16.60
2023-05-08T00:58:58.975Z,16.60
2023-05-08T01:00:19.545Z,16.60
2023-05-08T01:01:40.587Z,16.60
2023-05-08T01:03:00.893Z,16.60
2023-05-08T01:04:21.821Z,16.50
2023-05-08T01:05:41.876Z,16.50
2023-05-08T01:07:02.157Z,16.60
2023-05-08T01:08:22.628Z,16.60
2023-05-08T01:09:43.140Z,16.50
2023-05-08T01:11:06.901Z,16.60
2023-05-08T01:12:29.993Z,16.60
2023-05-08T01:13:51.274Z,16.60
2023-05-08T01:15:14.656Z,16.60
2023-05-08T01:16:36.057Z,16.60
2023-05-08T01:17:57.928Z,16.60
2023-05-08T01:19:24.855Z,16.60
2023-05-08T01:20:46.915Z,16.60
2023-05-08T01:22:09.163Z,16.50
2023-05-08T01:23:42.882Z,16.50
2023-05-08T01:25:11.395Z,16.60
2023-05-08T01:26:46.409Z,16.60
2023-05-08T01:28:08.651Z,16.60
2023-05-08T01:29:49.633Z,16.50
2023-05-08T01:31:14.740Z,16.60
2023-05-08T01:32:36.811Z,16.60
2023-05-08T01:34:08.136Z,16.50
2023-05-08T01:35:29.918Z,16.40
2023-05-08T01:36:50.803Z,16.40
2023-05-08T01:38:12.802Z,16.40
2023-05-08T01:39:34.568Z,16.40
2023-05-08T01:40:56.969Z,16.40
2023-05-08T01:42:18.553Z,16.40
2023-05-08T01:43:40.457Z,16.20
2023-05-08T01:45:01.818Z,16.20
2023-05-08T01:46:22.942Z,16.20
2023-05-08T01:47:44.718Z,16.10
2023-05-08T01:49:05.526Z,16.10
2023-05-08T01:50:26.772Z,16.00
2023-05-08T01:51:47.511Z,16.00
2023-05-08T01:53:08.647Z,15.90
2023-05-08T01:54:29.116Z,15.90
2023-05-08T01:55:50.229Z,15.90
2023-05-08T01:57:10.459Z,15.80
2023-05-08T01:58:30.795Z,15.80
2023-05-08T01:59:50.991Z,15.80
2023-05-08T02:01:11.545Z,15.80
2023-05-08T02:02:31.704Z,15.70
2023-05-08T02:03:53.246Z,15.80
2023-05-08T02:05:13.720Z,15.80
2023-05-08T02:06:35.721Z,15.80
2023-05-08T02:07:55.914Z,15.80
2023-05-08T02:09:16.384Z,15.80
2023-05-08T02:10:37.137Z,15.80
2023-05-08T02:11:57.566Z,15.80
2023-05-08T02:13:18.312Z,15.80
2023-05-08T02:14:38.902Z,15.80
2023-05-08T02:15:59.303Z,15.80
2023-05-08T02:17:19.673Z,15.80
2023-05-08T02:18:40.298Z,15.80
2023-05-08T02:20:01.813Z,15.60
2023-05-08T02:21:22.338Z,15.50
2023-05-08T02:22:43.377Z,15.40
2023-05-08T02:24:03.787Z,15.50
2023-05-08T02:25:23.800Z,15.40
2023-05-08T02:26:44.225Z,15.20
2023-05-08T02:28:05.916Z,15.20
2023-05-08T02:29:26.267Z,15.20
2023-05-08T02:30:47.003Z,15.30
2023-05-08T02:32:07.234Z,15.40
2023-05-08T02:33:27.590Z,15.30
2023-05-08T02:34:58.956Z,15.30
2023-05-08T02:36:23.885Z,15.30
2023-05-08T02:37:45.735Z,15.30
2023-05-08T02:39:06.250Z,15.30
2023-05-08T02:40:27.668Z,15.30
2023-05-08T02:41:47.804Z,15.30
2023-05-08T02:43:08.247Z,15.30
2023-05-08T02:44:28.599Z,15.40
2023-05-08T02:45:49.825Z,15.40
2023-05-08T02:47:16.231Z,15.40
2023-05-08T02:48:36.849Z,15.40
2023-05-08T02:50:00.457Z,15.40
2023-05-08T02:51:21.203Z,15.30
2023-05-08T02:52:44.489Z,15.30
2023-05-08T02:54:04.997Z,15.30
2023-05-08T02:55:32.946Z,15.30
2023-05-08T02:56:56.124Z,15.40
2023-05-08T02:58:17.087Z,15.40
2023-05-08T02:59:38.575Z,15.30
2023-05-08T03:01:00.597Z,15.30
2023-05-08T03:02:22.458Z,15.20
2023-05-08T03:03:43.606Z,15.20
2023-05-08T03:05:08.388Z,15.20
2023-05-08T03:06:28.728Z,15.20
2023-05-08T03:07:51.248Z,15.20
2023-05-08T03:09:12.453Z,15.10
2023-05-08T03:10:33.366Z,15.10
2023-05-08T03:11:56.585Z,15.20
2023-05-08T03:13:16.849Z,15.10
2023-05-08T03:14:37.364Z,15.10
2023-05-08T03:15:59.061Z,15.10
2023-05-08T03:17:19.309Z,15.10
2023-05-08T03:18:41.483Z,15.00
2023-05-08T03:20:03.170Z,15.00
2023-05-08T03:21:24.297Z,15.00
2023-05-08T03:22:44.387Z,15.00
2023-05-08T03:24:06.710Z,15.00
2023-05-08T03:25:27.062Z,15.00
2023-05-08T03:26:47.440Z,15.00
2023-05-08T03:28:07.797Z,15.00
2023-05-08T03:29:28.107Z,15.00
2023-05-08T03:30:48.601Z,14.90
2023-05-08T03:32:09.100Z,14.90
2023-05-08T03:33:29.452Z,14.90
2023-05-08T03:34:49.878Z,14.80
2023-05-08T03:36:10.395Z,14.70
2023-05-08T03:37:30.609Z,14.70
2023-05-08T03:38:51.043Z,14.70
2023-05-08T03:40:13.076Z,14.60
2023-05-08T03:41:33.752Z,14.60
2023-05-08T03:42:54.220Z,14.50
2023-05-08T03:44:14.506Z,14.50
2023-05-08T03:45:34.896Z,14.50
2023-05-08T03:46:55.742Z,14.50
2023-05-08T03:48:16.233Z,14.50
2023-05-08T03:49:36.651Z,14.50
2023-05-08T03:50:57.076Z,14.60
2023-05-08T03:52:17.427Z,14.50
2023-05-08T03:53:37.717Z,14.50
2023-05-08T03:54:58.108Z,14.50
2023-05-08T03:56:19.747Z,14.50
2023-05-08T03:57:40.591Z,14.40
2023-05-08T03:59:01.414Z,14.40
2023-05-08T04:00:22.243Z,14.40
2023-05-08T04:01:44.406Z,14.40
2023-05-08T04:03:11.232Z,14.40
2023-05-08T04:04:33.674Z,14.40
2023-05-08T04:06:10.563Z,14.30
2023-05-08T04:07:32.117Z,14.30
2023-05-08T04:08:53.810Z,14.40
2023-05-08T04:10:16.375Z,14.40
2023-05-08T04:11:41.545Z,14.50
2023-05-08T04:13:03.243Z,14.40
2023-05-08T04:14:24.595Z,14.40
2023-05-08T04:15:46.735Z,14.40
2023-05-08T04:17:07.236Z,14.40
2023-05-08T04:18:28.421Z,14.30
2023-05-08T04:19:50.116Z,14.30
2023-05-08T04:21:11.150Z,14.30
2023-05-08T04:22:32.477Z,14.20
2023-05-08T04:23:52.597Z,14.20
2023-05-08T04:25:13.179Z,14.30
2023-05-08T04:26:33.925Z,14.30
2023-05-08T04:27:55.608Z,14.30
2023-05-08T04:29:16.017Z,14.30
2023-05-08T04:30:36.291Z,14.30
2023-05-08T04:31:56.799Z,14.30
2023-05-08T04:33:17.030Z,14.30
2023-05-08T04:34:37.453Z,14.40
2023-05-08T04:35:57.873Z,14.40
2023-05-08T04:37:24.506Z,14.40
2023-05-08T04:38:44.568Z,14.40
2023-05-08T04:40:05.664Z,14.40
2023-05-08T04:41:26.108Z,14.40
2023-05-08T04:42:46.509Z,14.50
2023-05-08T04:44:08.181Z,14.50
2023-05-08T04:45:28.649Z,14.50
2023-05-08T04:46:48.930Z,14.50
2023-05-08T04:48:09.392Z,14.40
2023-05-08T04:49:29.849Z,14.50
2023-05-08T04:50:50.359Z,14.60
2023-05-08T04:52:10.636Z,14.60
2023-05-08T04:53:31.192Z,14.70
2023-05-08T04:54:51.608Z,14.70
2023-05-08T04:56:11.918Z,14.50
2023-05-08T04:57:33.223Z,14.50
2023-05-08T04:58:53.420Z,14.60
2023-05-08T05:00:15.848Z,14.70
2023-05-08T05:01:38.920Z,14.70
2023-05-08T05:02:59.349Z,14.80
2023-05-08T05:04:19.860Z,14.70
2023-05-08T05:05:40.326Z,14.50
2023-05-08T05:07:00.872Z,14.50
2023-05-08T05:08:21.206Z,14.60
2023-05-08T05:09:41.308Z,14.70
2023-05-08T05:11:01.593Z,14.60
2023-05-08T05:12:21.902Z,14.70
2023-05-08T05:13:42.374Z,14.70
2023-05-08T05:15:02.949Z,14.70
2023-05-08T05:16:24.818Z,14.70
2023-05-08T05:17:45.275Z,14.80
2023-05-08T05:19:08.371Z,14.80
2023-05-08T05:20:28.613Z,14.80
2023-05-08T05:21:49.104Z,14.90
2023-05-08T05:23:09.346Z,14.80
2023-05-08T05:24:29.668Z,14.90
2023-05-08T05:25:49.877Z,14.90
2023-05-08T05:27:10.146Z,14.90
2023-05-08T05:28:30.518Z,14.90
2023-05-08T05:29:50.910Z,14.90
2023-05-08T05:31:11.485Z,14.80
2023-05-08T05:32:33.321Z,14.90
2023-05-08T05:33:53.492Z,14.90
2023-05-08T05:35:14.127Z,14.90
2023-05-08T05:36:34.228Z,14.90
2023-05-08T05:37:54.674Z,14.90
2023-05-08T05:39:15.415Z,14.90
2023-05-08T05:40:35.651Z,14.90
2023-05-08T05:41:56.098Z,15.00
2023-05-08T05:43:16.386Z,15.00
2023-05-08T05:44:36.721Z,15.00
2023-05-08T05:46:03.228Z,15.00
2023-05-08T05:47:23.824Z,15.10
2023-05-08T05:48:45.348Z,15.00
2023-05-08T05:50:06.262Z,15.00
2023-05-08T05:51:26.734Z,15.10
2023-05-08T05:52:46.971Z,15.10
2023-05-08T05:54:07.343Z,15.20
2023-05-08T05:55:27.812Z,15.20
2023-05-08T05:56:48.154Z,15.20
2023-05-08T05:58:08.343Z,15.20
2023-05-08T05:59:28.610Z,15.30
2023-05-08T06:00:57.833Z,15.30
2023-05-08T06:02:18.141Z,15.40
2023-05-08T06:03:38.472Z,15.40
2023-05-08T06:05:00.027Z,15.50
2023-05-08T06:06:20.529Z,15.50
2023-05-08T06:07:42.083Z,15.60
2023-05-08T06:09:02.670Z,15.60
2023-05-08T06:10:22.913Z,15.70
2023-05-08T06:11:43.249Z,15.60
2023-05-08T06:13:03.705Z,15.60
2023-05-08T06:14:24.125Z,15.70
2023-05-08T06:15:44.456Z,15.70
2023-05-08T06:17:04.999Z,15.70
2023-05-08T06:18:25.269Z,15.70
2023-05-08T06:19:45.462Z,15.80
2023-05-08T06:21:09.726Z,15.70
2023-05-08T06:22:29.972Z,15.60
2023-05-08T06:23:50.510Z,15.70
2023-05-08T06:25:11.121Z,15.80
2023-05-08T06:26:31.679Z,15.80
2023-05-08T06:27:51.973Z,15.80
2023-05-08T06:29:12.550Z,15.90
2023-05-08T06:30:33.000Z,15.90
2023-05-08T06:31:54.389Z,16.00
2023-05-08T06:33:14.730Z,15.90
2023-05-08T06:34:35.128Z,15.90
2023-05-08T06:35:55.546Z,15.90
2023-05-08T06:37:17.290Z,15.90
2023-05-08T06:38:37.638Z,16.00
2023-05-08T06:40:10.925Z,16.00
2023-05-08T06:41:32.522Z,16.00
2023-05-08T06:42:52.855Z,16.00
2023-05-08T06:44:13.163Z,16.10
2023-05-08T06:45:33.536Z,16.10
2023-05-08T06:46:53.945Z,16.20
2023-05-08T06:48:14.182Z,16.20
2023-05-08T06:49:38.382Z,16.20
2023-05-08T06:50:58.800Z,16.20
2023-05-08T06:52:20.413Z,16.20
2023-05-08T06:53:40.918Z,16.20
2023-05-08T06:55:01.354Z,16.30
2023-05-08T06:56:21.688Z,16.40
2023-05-08T06:57:42.142Z,16.30
2023-05-08T06:59:08.349Z,16.30
2023-05-08T07:00:29.050Z,16.30
2023-05-08T07:01:49.425Z,16.30
2023-05-08T07:03:09.734Z,16.30
2023-05-08T07:04:32.104Z,16.20
2023-05-08T07:05:52.665Z,16.30
2023-05-08T07:07:13.114Z,16.20
2023-05-08T07:08:35.006Z,16.30
2023-05-08T07:09:55.669Z,16.20
2023-05-08T07:11:16.032Z,16.30
2023-05-08T07:12:36.364Z,16.30
2023-05-08T07:13:56.541Z,16.40
2023-05-08T07:15:25.536Z,16.40
2023-05-08T07:16:46.672Z,16.40
2023-05-08T07:18:07.058Z,16.50
2023-05-08T07:19:27.283Z,16.40
2023-05-08T07:20:47.895Z,16.40
2023-05-08T07:22:08.505Z,16.50
2023-05-08T07:23:28.958Z,16.50
2023-05-08T07:24:50.839Z,16.50
2023-05-08T07:26:11.161Z,16.50
2023-05-08T07:27:31.516Z,16.50
2023-05-08T07:28:51.994Z,16.50
2023-05-08T07:30:12.667Z,16.60
2023-05-08T07:31:32.809Z,16.60
2023-05-08T07:32:53.259Z,16.60
2023-05-08T07:34:13.372Z,16.60
2023-05-08T07:35:33.742Z,16.50
2023-05-08T07:36:54.125Z,16.50
2023-05-08T07:38:14.722Z,16.50
2023-05-08T07:39:35.290Z,16.50
2023-05-08T07:40:57.079Z,16.50
2023-05-08T07:42:17.720Z,16.40
2023-05-08T07:43:38.946Z,16.50
2023-05-08T07:45:00.345Z,16.50
2023-05-08T07:46:20.896Z,16.60
2023-05-08T07:47:48.470Z,16.50
2023-05-08T07:49:08.658Z,16.60
2023-05-08T07:50:29.151Z,16.60
2023-05-08T07:51:49.698Z,16.60
2023-05-08T07:53:09.955Z,16.60
2023-05-08T07:54:30.248Z,16.60
2023-05-08T07:55:50.750Z,16.60
2023-05-08T07:57:12.539Z,16.60
2023-05-08T07:58:33.026Z,16.60
2023-05-08T07:59:53.528Z,16.70
2023-05-08T08:01:13.852Z,16.70
2023-05-08T08:02:34.302Z,16.80
2023-05-08T08:03:54.607Z,16.80
2023-05-08T08:05:15.076Z,16.90
2023-05-08T08:06:35.757Z,16.90
2023-05-08T08:07:56.138Z,16.90
2023-05-08T08:09:16.514Z,16.90
2023-05-08T08:10:36.928Z,16.90
2023-05-08T08:11:57.295Z,17.00
2023-05-08T08:13:18.855Z,17.00
2023-05-08T08:14:39.361Z,17.00
2023-05-08T08:16:00.558Z,17.10
2023-05-08T08:17:20.826Z,17.10
2023-05-08T08:18:41.104Z,17.10
2023-05-08T08:20:01.510Z,17.00
2023-05-08T08:21:21.866Z,17.10
2023-05-08T08:22:42.352Z,17.00
2023-05-08T08:24:02.725Z,17.00
2023-05-08T08:25:23.177Z,17.10
2023-05-08T08:26:43.663Z,17.10
2023-05-08T08:28:04.005Z,17.10
2023-05-08T08:29:25.614Z,17.10
2023-05-08T08:30:45.680Z,17.20
2023-05-08T08:32:05.963Z,17.30
2023-05-08T08:33:27.081Z,17.30
2023-05-08T08:34:47.303Z,17.40
2023-05-08T08:36:12.423Z,17.50
2023-05-08T08:37:32.429Z,17.60
2023-05-08T08:38:52.937Z,17.60
2023-05-08T08:40:13.244Z,17.60
2023-05-08T08:41:33.774Z,17.70
2023-05-08T08:42:54.467Z,17.80
2023-05-08T08:44:14.334Z,17.80
2023-05-08T08:45:36.127Z,17.80
2023-05-08T08:46:58.078Z,17.90
2023-05-08T08:48:18.567Z,17.90
2023-05-08T08:49:41.506Z,18.00
2023-05-08T08:51:02.386Z,18.00
2023-05-08T08:52:25.964Z,18.00
2023-05-08T08:53:46.567Z,18.00
2023-05-08T08:55:07.402Z,18.10
2023-05-08T08:56:27.430Z,18.20
2023-05-08T08:57:49.259Z,18.30
2023-05-08T08:59:09.634Z,18.30
2023-05-08T09:00:30.614Z,18.30
2023-05-08T09:01:54.049Z,18.40
2023-05-08T09:03:14.568Z,18.40
2023-05-08T09:04:34.800Z,18.40
2023-05-08T09:05:55.040Z,18.40
2023-05-08T09:07:15.404Z,18.40
2023-05-08T09:08:38.346Z,18.40
2023-05-08T09:09:58.614Z,18.50
2023-05-08T09:11:18.834Z,18.50
2023-05-08T09:12:39.240Z,18.50
2023-05-08T09:13:59.514Z,18.50
2023-05-08T09:15:20.166Z,18.60
2023-05-08T09:16:40.635Z,18.60
2023-05-08T09:18:02.582Z,18.60
2023-05-08T09:19:26.244Z,18.70
2023-05-08T09:20:48.197Z,18.80
2023-05-08T09:22:08.619Z,18.80
2023-05-08T09:23:29.002Z,18.80
2023-05-08T09:24:55.686Z,18.80
2023-05-08T09:26:26.396Z,18.80
2023-05-08T09:27:46.725Z,18.80
2023-05-08T09:29:13.553Z,18.80
2023-05-08T09:30:33.575Z,18.80
2023-05-08T09:31:53.958Z,18.70
2023-05-08T09:33:15.665Z,18.80
2023-05-08T09:34:36.079Z,18.80
2023-05-08T09:35:56.741Z,18.80
2023-05-08T09:37:16.978Z,18.70
2023-05-08T09:38:38.073Z,18.70
2023-05-08T09:40:14.767Z,18.70
2023-05-08T09:41:35.203Z,18.70
2023-05-08T09:42:55.938Z,18.70
2023-05-08T09:44:16.334Z,18.80
2023-05-08T09:45:36.830Z,18.80
2023-05-08T09:47:09.663Z,18.80
2023-05-08T09:48:38.062Z,18.70
2023-05-08T09:49:58.827Z,18.80
2023-05-08T09:51:19.304Z,18.90
2023-05-08T09:52:39.778Z,18.80
2023-05-08T09:54:00.339Z,18.90
2023-05-08T09:55:20.762Z,18.80
2023-05-08T09:56:41.102Z,18.80
2023-05-08T09:58:01.606Z,18.90
2023-05-08T09:59:22.421Z,18.80
2023-05-08T10:00:43.137Z,18.80
2023-05-08T10:02:09.947Z,18.90
2023-05-08T10:03:45.223Z,18.90
2023-05-08T10:05:22.314Z,19.00
2023-05-08T10:06:42.934Z,19.00
2023-05-08T10:08:17.553Z,18.90
2023-05-08T10:09:49.749Z,18.90
2023-05-08T10:11:13.971Z,18.80
2023-05-08T10:12:34.426Z,18.80
2023-05-08T10:13:54.758Z,18.90
2023-05-08T10:15:17.874Z,18.90
2023-05-08T10:16:39.595Z,19.10
2023-05-08T10:18:02.857Z,19.20
2023-05-08T10:19:23.703Z,19.30
2023-05-08T10:20:45.686Z,19.40
2023-05-08T10:22:08.769Z,19.40
2023-05-08T10:23:29.185Z,19.50
2023-05-08T10:24:50.203Z,19.50
2023-05-08T10:26:12.021Z,19.50
2023-05-08T10:27:34.971Z,19.40
2023-05-08T10:28:55.712Z,19.40
2023-05-08T10:30:15.985Z,19.40
2023-05-08T10:31:36.526Z,19.40
2023-05-08T10:32:56.625Z,19.40
2023-05-08T10:34:18.408Z,19.40
2023-05-08T10:35:38.611Z,19.50
2023-05-08T10:37:00.322Z,19.60
2023-05-08T10:38:20.647Z,19.60
2023-05-08T10:39:41.315Z,19.60
2023-05-08T10:41:01.657Z,19.60
2023-05-08T10:42:21.982Z,19.60
2023-05-08T10:43:42.893Z,19.60
2023-05-08T10:45:03.365Z,19.50
2023-05-08T10:46:25.959Z,19.50
2023-05-08T10:47:48.900Z,19.60
2023-05-08T10:49:12.258Z,19.60
2023-05-08T10:50:37.563Z,19.60
2023-05-08T10:52:01.662Z,19.70
2023-05-08T10:53:22.833Z,19.70
2023-05-08T10:54:48.543Z,19.70
2023-05-08T10:56:08.862Z,19.80
2023-05-08T10:57:29.199Z,19.70
2023-05-08T10:58:49.641Z,19.80
2023-05-08T11:00:10.271Z,19.90
2023-05-08T11:01:30.454Z,19.80
2023-05-08T11:02:50.901Z,19.90
2023-05-08T11:04:19.619Z,19.90
2023-05-08T11:05:45.811Z,20.00
2023-05-08T11:07:07.691Z,20.00
2023-05-08T11:08:28.398Z,20.00
2023-05-08T11:09:48.561Z,20.10
2023-05-08T11:11:10.446Z,20.20
2023-05-08T11:12:30.850Z,20.10
2023-05-08T11:13:52.342Z,20.20
2023-05-08T11:15:12.645Z,20.20
2023-05-08T11:16:51.606Z,20.20
2023-05-08T11:18:12.148Z,20.20
2023-05-08T11:19:32.566Z,20.10
2023-05-08T11:20:56.218Z,20.10
2023-05-08T11:22:21.616Z,20.10
2023-05-08T11:23:42.598Z,20.10
2023-05-08T11:25:04.018Z,20.10
2023-05-08T11:26:38.253Z,20.10
2023-05-08T11:28:13.223Z,20.10
2023-05-08T11:29:33.438Z,20.10
2023-05-08T11:30:53.841Z,20.10
2023-05-08T11:32:14.434Z,20.10
2023-05-08T11:33:35.057Z,20.20
2023-05-08T11:34:55.432Z,20.20
2023-05-08T11:36:16.342Z,20.20
2023-05-08T11:37:37.755Z,20.20
2023-05-08T11:39:09.589Z,20.20
2023-05-08T11:40:45.091Z,20.30
2023-05-08T11:42:23.812Z,20.20
2023-05-08T11:43:49.848Z,20.10
2023-05-08T11:45:12.404Z,20.10
2023-05-08T11:46:42.502Z,20.10
2023-05-08T11:48:05.356Z,20.10
2023-05-08T11:49:29.810Z,20.10
2023-05-08T11:50:54.794Z,20.20
2023-05-08T11:52:18.948Z,20.40
2023-05-08T11:53:41.643Z,20.40
2023-05-08T11:55:03.967Z,20.60
2023-05-08T11:56:24.306Z,20.60
2023-05-08T11:57:44.686Z,20.60
2023-05-08T11:59:05.260Z,20.60
2023-05-08T12:00:25.491Z,20.70
2023-05-08T12:01:56.686Z,20.70
2023-05-08T12:03:27.704Z,20.70
2023-05-08T12:04:48.167Z,20.70
2023-05-08T12:06:09.100Z,20.70
2023-05-08T12:07:29.395Z,20.70
2023-05-08T12:08:51.353Z,20.50
2023-05-08T12:10:12.118Z,20.60
2023-05-08T12:11:33.016Z,20.60
2023-05-08T12:12:53.286Z,20.70
2023-05-08T12:14:17.378Z,20.80
2023-05-08T12:15:37.977Z,20.90
2023-05-08T12:16:58.470Z,21.00
2023-05-08T12:18:18.887Z,21.00
2023-05-08T12:19:39.018Z,21.00
2023-05-08T12:21:00.193Z,20.90
2023-05-08T12:22:20.648Z,20.90
2023-05-08T12:23:41.151Z,21.00
2023-05-08T12:25:04.480Z,21.20
2023-05-08T12:26:24.710Z,21.20
2023-05-08T12:27:45.384Z,21.20
2023-05-08T12:29:06.121Z,21.20
2023-05-08T12:30:26.866Z,21.20
2023-05-08T12:31:47.687Z,21.30
2023-05-08T12:33:08.060Z,21.30
2023-05-08T12:34:28.469Z,21.20
2023-05-08T12:35:48.968Z,21.30
2023-05-08T12:37:09.411Z,21.30
2023-05-08T12:38:29.907Z,21.40
2023-05-08T12:39:50.593Z,21.40
2023-05-08T12:41:12.304Z,21.40
2023-05-08T12:42:41.695Z,21.40
2023-05-08T12:44:02.262Z,21.40
2023-05-08T12:45:23.366Z,21.40
2023-05-08T12:46:46.207Z,21.30
2023-05-08T12:48:07.828Z,21.20
2023-05-08T12:49:28.577Z,21.20
2023-05-08T12:50:48.954Z,21.30
2023-05-08T12:52:12.059Z,21.20
2023-05-08T12:53:32.570Z,21.20
2023-05-08T12:54:52.995Z,21.20
2023-05-08T12:56:14.897Z,21.20
2023-05-08T12:57:35.134Z,21.20
2023-05-08T12:58:58.753Z,21.10
2023-05-08T13:00:19.028Z,21.10
2023-05-08T13:01:39.297Z,21.00
2023-05-08T13:02:59.839Z,21.00
2023-05-08T13:04:20.103Z,21.00
2023-05-08T13:05:41.628Z,21.00
2023-05-08T13:07:01.946Z,20.90
2023-05-08T13:08:28.856Z,20.90
2023-05-08T13:10:06.795Z,20.90
2023-05-08T13:11:31.323Z,21.00
2023-05-08T13:12:51.820Z,21.10
2023-05-08T13:14:12.088Z,21.20
2023-05-08T13:15:32.437Z,21.30
2023-05-08T13:16:52.931Z,21.20
2023-05-08T13:18:13.272Z,21.40
2023-05-08T13:19:33.568Z,21.40
2023-05-08T13:20:54.034Z,21.50
2023-05-08T13:22:14.726Z,21.60
2023-05-08T13:23:34.962Z,21.60
2023-05-08T13:24:55.599Z,21.70
2023-05-08T13:26:15.890Z,21.60
2023-05-08T13:27:37.783Z,21.70
2023-05-08T13:28:57.965Z,21.60
2023-05-08T13:30:18.797Z,21.60
2023-05-08T13:31:39.096Z,21.40
2023-05-08T13:32:59.878Z,21.40
2023-05-08T13:34:20.135Z,21.30
2023-05-08T13:35:40.531Z,21.30
2023-05-08T13:37:00.968Z,21.30
2023-05-08T13:38:21.478Z,21.30
2023-05-08T13:39:41.804Z,21.40
2023-05-08T13:41:02.572Z,21.30
2023-05-08T13:42:22.769Z,21.30
2023-05-08T13:43:44.481Z,21.40
2023-05-08T13:45:05.233Z,21.30
2023-05-08T13:46:25.888Z,21.30
2023-05-08T13:47:46.462Z,21.30
2023-05-08T13:49:06.688Z,21.20
2023-05-08T13:50:27.139Z,21.10
2023-05-08T13:51:49.407Z,21.10
2023-05-08T13:53:15.323Z,21.10
2023-05-08T13:54:35.511Z,21.10
2023-05-08T13:55:55.956Z,21.00
2023-05-08T13:57:16.457Z,21.00
2023-05-08T13:58:36.920Z,21.00
2023-05-08T13:59:58.653Z,20.90
2023-05-08T14:01:26.658Z,20.80
2023-05-08T14:02:48.801Z,20.90
2023-05-08T14:04:10.533Z,20.80
2023-05-08T14:05:31.191Z,20.80
2023-05-08T14:06:51.596Z,20.80
2023-05-08T14:08:12.055Z,20.80
2023-05-08T14:09:32.621Z,20.90
2023-05-08T14:10:53.362Z,20.80
2023-05-08T14:12:14.168Z,20.80
2023-05-08T14:13:34.747Z,20.80
2023-05-08T14:14:55.157Z,20.80
2023-05-08T14:16:17.108Z,20.70
2023-05-08T14:17:37.268Z,20.80
2023-05-08T14:18:57.680Z,20.70
2023-05-08T14:20:18.443Z,20.60
2023-05-08T14:21:38.977Z,20.50
2023-05-08T14:23:00.240Z,20.50
2023-05-08T14:24:20.771Z,20.50
2023-05-08T14:25:41.271Z,20.50
2023-05-08T14:27:01.741Z,20.50
2023-05-08T14:28:22.218Z,20.30
2023-05-08T14:29:42.727Z,20.30
2023-05-08T14:31:03.418Z,20.30
2023-05-08T14:32:25.516Z,20.20
2023-05-08T14:33:45.907Z,20.20
2023-05-08T14:35:06.914Z,20.20
2023-05-08T14:36:27.447Z,20.30
2023-05-08T14:37:47.812Z,20.30
2023-05-08T14:39:08.410Z,20.30
2023-05-08T14:40:29.002Z,20.30
2023-05-08T14:42:08.931Z,20.20
2023-05-08T14:43:29.936Z,20.10
2023-05-08T14:44:50.560Z,20.10
2023-05-08T14:46:10.929Z,20.20
2023-05-08T14:47:32.568Z,20.10
2023-05-08T14:48:54.256Z,20.10
2023-05-08T14:50:15.294Z,20.00
2023-05-08T14:51:35.662Z,20.00
2023-05-08T14:52:57.205Z,20.10
2023-05-08T14:54:17.849Z,20.00
2023-05-08T14:55:38.304Z,20.10
2023-05-08T14:56:58.896Z,20.10
2023-05-08T14:58:19.319Z,20.00
2023-05-08T14:59:49.036Z,20.00
2023-05-08T15:01:12.981Z,19.90
2023-05-08T15:02:34.710Z,19.90
2023-05-08T15:03:55.160Z,19.80
2023-05-08T15:05:19.912Z,19.80
2023-05-08T15:06:40.890Z,19.80
2023-05-08T15:08:01.395Z,19.80
2023-05-08T15:09:21.855Z,19.80
2023-05-08T15:10:42.307Z,19.80
2023-05-08T15:12:02.737Z,19.90
2023-05-08T15:13:23.172Z,19.80
2023-05-08T15:14:43.492Z,19.70
2023-05-08T15:16:04.179Z,19.70
2023-05-08T15:17:24.397Z,19.70
2023-05-08T15:18:45.776Z,19.60
2023-05-08T15:20:06.899Z,19.60
2023-05-08T15:21:27.089Z,19.70
2023-05-08T15:22:47.650Z,19.60
2023-05-08T15:24:08.712Z,19.60
2023-05-08T15:25:29.133Z,19.60
2023-05-08T15:26:49.643Z,19.60
2023-05-08T15:28:09.958Z,19.70
2023-05-08T15:29:30.398Z,19.60
2023-05-08T15:30:50.893Z,19.70
2023-05-08T15:32:11.252Z,19.70
2023-05-08T15:33:31.565Z,19.60
2023-05-08T15:34:53.417Z,19.60
2023-05-08T15:36:13.942Z,19.60
2023-05-08T15:37:34.025Z,19.50
2023-05-08T15:38:54.624Z,19.50
2023-05-08T15:40:15.434Z,19.50
2023-05-08T15:41:36.056Z,19.50
2023-05-08T15:42:56.592Z,19.50
2023-05-08T15:44:18.497Z,19.40
2023-05-08T15:45:39.110Z,19.40
2023-05-08T15:46:59.578Z,19.50
2023-05-08T15:48:19.950Z,19.40
2023-05-08T15:49:40.579Z,19.40
2023-05-08T15:51:02.315Z,19.30
2023-05-08T15:52:22.553Z,19.30
2023-05-08T15:53:43.027Z,19.20
2023-05-08T15:55:03.539Z,19.20
2023-05-08T15:56:23.993Z,19.10
2023-05-08T15:57:44.534Z,19.10
2023-05-08T15:59:04.911Z,19.10
2023-05-08T16:00:30.144Z,19.10
2023-05-08T16:01:57.338Z,19.10
2023-05-08T16:03:18.122Z,19.10
2023-05-08T16:04:38.714Z,19.20
2023-05-08T16:05:59.217Z,19.20
2023-05-08T16:07:21.030Z,19.20
2023-05-08T16:08:41.544Z,19.10
2023-05-08T16:10:02.108Z,19.10
2023-05-08T16:11:22.524Z,19.10
2023-05-08T16:12:43.034Z,19.00
2023-05-08T16:14:03.548Z,19.00
2023-05-08T16:15:24.285Z,19.00
2023-05-08T16:16:44.861Z,19.00
2023-05-08T16:18:05.700Z,19.00
2023-05-08T16:19:25.994Z,19.00
2023-05-08T16:20:46.521Z,19.00
2023-05-08T16:22:06.996Z,19.00
2023-05-08T16:23:28.863Z,19.00
2023-05-08T16:24:49.345Z,19.00
2023-05-08T16:26:09.466Z,19.10
2023-05-08T16:27:29.794Z,19.10
2023-05-08T16:28:50.189Z,19.10
2023-05-08T16:30:11.100Z,19.10
2023-05-08T16:31:31.680Z,19.10
2023-05-08T16:32:52.538Z,19.10
2023-05-08T16:34:13.282Z,19.20
2023-05-08T16:35:33.794Z,19.30
2023-05-08T16:36:54.088Z,19.40
2023-05-08T16:38:14.588Z,19.40
2023-05-08T16:39:36.543Z,19.50
2023-05-08T16:41:00.990Z,19.50
2023-05-08T16:42:21.399Z,19.60
2023-05-08T16:43:41.757Z,19.60
2023-05-08T16:45:02.724Z,19.70
2023-05-08T16:46:30.168Z,19.70
2023-05-08T16:47:50.967Z,19.70
2023-05-08T16:49:11.285Z,19.80
2023-05-08T16:50:31.980Z,19.90
2023-05-08T16:51:52.471Z,20.00
2023-05-08T16:53:12.860Z,20.00
2023-05-08T16:54:33.136Z,20.10
2023-05-08T16:55:55.145Z,20.10
2023-05-08T16:57:15.610Z,19.90
2023-05-08T16:58:35.960Z,19.90
2023-05-08T16:59:56.663Z,20.00
2023-05-08T17:01:16.916Z,19.90
2023-05-08T17:02:37.544Z,19.80
2023-05-08T17:03:57.713Z,19.70
2023-05-08T17:05:18.376Z,19.80
2023-05-08T17:06:38.571Z,19.80
2023-05-08T17:07:58.965Z,19.70
2023-05-08T17:09:19.436Z,19.70
2023-05-08T17:10:39.818Z,19.70
2023-05-08T17:12:04.123Z,19.70
2023-05-08T17:13:24.482Z,19.70
2023-05-08T17:14:44.755Z,19.70
2023-05-08T17:16:05.541Z,19.60
2023-05-08T17:17:25.704Z,19.60
2023-05-08T17:18:46.162Z,19.60
2023-05-08T17:20:06.952Z,19.60
2023-05-08T17:21:27.278Z,19.60
2023-05-08T17:22:47.607Z,19.50
2023-05-08T17:24:08.383Z,19.50
2023-05-08T17:25:28.555Z,19.50
2023-05-08T17:26:48.969Z,19.50
2023-05-08T17:28:10.773Z,19.50
2023-05-08T17:29:30.833Z,19.40
2023-05-08T17:30:51.245Z,19.40